Time;durP1;ratioP1;P1;durP2;ratioP2;P2;SDS_P1;SDS_P2;PMS_P1;PMS_P2;Temp;Humidity;BMP_temperature;BMP_pressure;BME280_temperature;BME280_humidity;BME280_pressure;Samples;Min_cycle;Max_cycle;Signal;HPM_P1;HPM_P2
2022/11/03 00:03:03;;;;;;;15.70;6.10;;;;;;;10.47;100.00;100815.38;640858;1302;139743;-85
2022/11/03 00:18:07;;;;;;;13.40;5.20;;;;;;;10.24;100.00;100820.82;640360;1311;138898;-85
2022/11/03 00:33:10;;;;;;;8.30;3.90;;;;;;;10.08;100.00;100832.52;639065;1304;140895;-85
2022/11/03 00:48:29;;;;;;;9.30;3.80;;;;;;;10.08;100.00;100835.33;638531;1305;139823;-85
2022/11/03 01:03:34;;;;;;;;;;;;;;;9.97;100.00;100846.13;638029;1304;138906;-85
2022/11/03 01:18:37;;;;;;;167.10;75.30;;;;;;;9.75;100.00;100856.67;638433;1312;126534;-84
2022/11/03 01:33:41;;;;;;;252.00;90.20;;;;;;;9.59;100.00;100863.54;638993;1306;139178;-84
2022/11/03 01:48:51;;;;;;;336.40;124.70;;;;;;;9.38;100.00;100868.52;638364;1305;1184606;-85
2022/11/03 02:04:01;;;;;;;108.80;35.00;;;;;;;9.26;100.00;100868.06;638754;1304;139320;-85
2022/11/03 02:19:10;;;;;;;466.40;141.90;;;;;;;9.13;100.00;100866.16;638682;1305;139721;-85
2022/11/03 02:34:20;;;;;;;286.80;92.10;;;;;;;8.99;100.00;100865.92;639482;1312;139093;-85
2022/11/03 02:49:23;;;;;;;138.30;37.10;;;;;;;8.87;100.00;100869.60;638849;1312;140888;-84
2022/11/03 03:04:33;;;;;;;76.70;22.90;;;;;;;8.89;100.00;100886.75;639277;1307;139228;-85
2022/11/03 03:19:52;;;;;;;23.90;10.10;;;;;;;8.83;100.00;100904.40;638665;1312;139474;-85
2022/11/03 03:34:58;;;;;;;10.60;5.20;;;;;;;8.73;100.00;100897.94;638267;1312;139614;-85
2022/11/03 03:50:02;;;;;;;11.10;4.80;;;;;;;8.50;100.00;100893.78;638671;1298;140293;-85
2022/11/03 04:05:05;;;;;;;11.40;4.60;;;;;;;8.38;100.00;100898.61;639748;1301;139292;-85
2022/11/03 04:35:34;;;;;;;12.50;5.00;;;;;;;8.28;100.00;100904.33;639290;1304;138912;-84
2022/11/03 04:50:39;;;;;;;16.10;6.50;;;;;;;8.18;100.00;100917.93;639319;1303;139493;-85
2022/11/03 05:05:52;;;;;;;9.30;5.20;;;;;;;8.20;100.00;100922.18;640159;1291;140188;-85
2022/11/03 05:21:02;;;;;;;22.80;12.80;;;;;;;8.13;100.00;100926.95;640209;1298;140765;-86
2022/11/03 05:36:21;;;;;;;17.30;7.60;;;;;;;8.09;100.00;100935.23;639761;1299;139204;-85
2022/11/03 05:51:31;;;;;;;9.20;4.80;;;;;;;7.97;100.00;100935.53;639712;1296;140898;-86
2022/11/03 06:06:37;;;;;;;7.90;3.70;;;;;;;7.57;100.00;100932.72;640719;1311;139011;-85
2022/11/03 06:22:04;;;;;;;21.60;11.40;;;;;;;7.54;100.00;100941.84;623186;1337;1107146;-85
2022/11/03 06:37:20;;;;;;;32.80;18.50;;;;;;;7.43;100.00;100951.88;632567;1305;139559;-85
2022/11/03 06:52:25;;;;;;;29.60;14.80;;;;;;;7.50;100.00;100958.61;632662;1308;139903;-86
2022/11/03 07:07:28;;;;;;;16.50;8.70;;;;;;;8.34;100.00;100970.54;633574;1314;139369;-86
2022/11/03 07:22:32;;;;;;;15.90;8.00;;;;;;;9.43;100.00;100983.25;633247;1306;138785;-86
2022/11/03 07:37:36;;;;;;;15.80;8.00;;;;;;;10.17;100.00;100981.65;638234;1299;139466;-86
2022/11/03 07:52:39;;;;;;;19.40;8.80;;;;;;;11.12;100.00;100969.10;633557;1315;138462;-87
2022/11/03 08:07:43;;;;;;;17.10;8.50;;;;;;;12.16;100.00;100962.98;637636;1309;139398;-86
2022/11/03 08:22:46;;;;;;;12.10;6.10;;;;;;;12.86;100.00;100955.27;638998;1301;139688;-86
2022/11/03 08:38:09;;;;;;;13.60;7.50;;;;;;;13.86;100.00;100953.45;640398;1308;139422;-83
2022/11/03 08:53:12;;;;;;;16.40;8.40;;;;;;;14.53;99.17;100950.31;642095;1315;139636;-83
2022/11/03 09:08:16;;;;;;;22.50;9.90;;;;;;;15.38;99.19;100941.69;636934;1315;139514;-87
2022/11/03 09:23:40;;;;;;;19.40;8.70;;;;;;;16.40;95.58;100940.84;637345;1307;139373;-84
2022/11/03 09:38:43;;;;;;;26.20;6.60;;;;;;;17.16;93.90;100941.23;636592;1293;139098;-86
2022/11/03 09:53:47;;;;;;;9.50;5.90;;;;;;;17.99;91.04;100942.98;636933;1300;139030;-84
2022/11/03 10:08:51;;;;;;;10.20;4.40;;;;;;;18.42;86.55;100928.73;637540;1308;138804;-83
2022/11/03 10:23:55;;;;;;;14.00;4.20;;;;;;;18.79;80.58;100911.58;637273;1301;139777;-83
2022/11/03 10:39:00;;;;;;;6.60;2.60;;;;;;;19.01;72.89;100904.45;637650;1301;139592;-84
2022/11/03 10:54:09;;;;;;;12.30;4.50;;;;;;;17.38;68.03;100905.16;637458;1307;138721;-83
2022/11/03 11:09:18;;;;;;;8.10;4.00;;;;;;;16.73;69.58;100906.15;638316;1298;138376;-85
2022/11/03 11:24:46;;;;;;;14.20;6.50;;;;;;;16.32;71.09;100893.20;637550;1299;139776;-85
2022/11/03 11:39:50;;;;;;;14.10;5.10;;;;;;;16.50;72.12;100873.73;637716;1307;138920;-86
2022/11/03 11:54:53;;;;;;;10.80;4.50;;;;;;;16.87;72.30;100859.44;636763;1301;139521;-84
2022/11/03 12:10:07;;;;;;;12.00;4.20;;;;;;;17.76;69.13;100836.90;638071;1308;139314;-85
2022/11/03 12:25:34;;;;;;;14.50;4.90;;;;;;;17.63;67.48;100815.16;638317;1301;139242;-85
2022/11/03 12:40:38;;;;;;;30.70;8.40;;;;;;;18.21;65.84;100797.25;637985;1307;137965;-84
2022/11/03 12:55:42;;;;;;;17.30;6.00;;;;;;;18.70;63.97;100785.46;637017;1308;139747;-84
2022/11/03 13:10:47;;;;;;;5.80;2.80;;;;;;;21.92;60.21;100774.43;637423;1299;138377;-84
2022/11/03 13:25:51;;;;;;;13.00;4.00;;;;;;;23.97;53.58;100761.67;637244;1293;138418;-85
2022/11/03 13:40:55;;;;;;;13.10;4.70;;;;;;;23.49;52.42;100751.20;637729;1299;139116;-84
2022/11/03 13:56:06;;;;;;;12.30;4.70;;;;;;;24.57;51.81;100741.67;636767;1301;139553;-86
2022/11/03 14:26:37;;;;;;;11.50;5.10;;;;;;;21.03;54.04;100709.96;640905;1307;138532;-84
2022/11/03 14:42:03;;;;;;;11.30;4.90;;;;;;;19.35;57.87;100692.20;638987;1300;138462;-85
2022/11/03 14:57:07;;;;;;;11.70;6.70;;;;;;;19.58;58.67;100674.69;637899;1307;138792;-83
2022/11/03 15:12:10;;;;;;;190.80;85.00;;;;;;;16.10;61.27;100649.67;638677;1301;139294;-83
2022/11/03 15:27:14;;;;;;;352.10;224.20;;;;;;;13.91;65.52;100627.58;638298;1308;139097;-84
2022/11/03 15:42:18;;;;;;;433.10;237.40;;;;;;;12.72;69.00;100611.70;638548;1308;139240;-83
2022/11/03 15:57:21;;;;;;;234.00;106.60;;;;;;;12.17;71.73;100614.54;638594;1302;139845;-84
2022/11/03 16:12:25;;;;;;;365.10;134.60;;;;;;;11.63;73.04;100608.52;638996;1307;140239;-84
2022/11/03 16:27:28;;;;;;;82.90;42.30;;;;;;;11.23;74.74;100585.05;638472;1300;139481;-84
2022/11/03 16:42:37;;;;;;;80.60;36.70;;;;;;;10.84;76.74;100567.83;639346;1284;142386;-85
2022/11/03 16:57:41;;;;;;;263.50;108.20;;;;;;;10.66;78.45;100569.17;638432;1292;138937;-83
2022/11/03 17:12:44;;;;;;;284.10;102.00;;;;;;;10.56;78.59;100564.28;639993;1297;139432;-83
2022/11/03 17:27:58;;;;;;;303.30;100.10;;;;;;;10.37;80.28;100559.73;642610;1297;139524;-84
2022/11/03 17:43:03;;;;;;;410.80;130.70;;;;;;;10.19;81.61;100549.24;637467;1307;140425;-83
2022/11/03 17:58:09;;;;;;;437.90;126.90;;;;;;;10.00;82.57;100539.44;637587;1301;139784;-83
2022/11/03 18:13:20;;;;;;;177.80;61.40;;;;;;;9.79;83.43;100513.03;638559;1308;139390;-83
2022/11/03 18:28:24;;;;;;;76.40;32.40;;;;;;;9.51;84.25;100487.61;637403;1300;1188551;-83
2022/11/03 18:43:27;;;;;;;45.70;19.20;;;;;;;9.36;85.77;100478.23;637349;1308;139256;-83
2022/11/03 18:58:32;;;;;;;21.80;10.40;;;;;;;9.28;86.87;100460.86;639202;1302;138589;-83
2022/11/03 19:13:41;;;;;;;31.20;10.90;;;;;;;9.22;88.25;100432.23;638093;1297;140477;-83
2022/11/03 19:28:48;;;;;;;33.70;14.80;;;;;;;9.23;89.99;100406.29;637581;1308;139081;-83
2022/11/03 19:43:51;;;;;;;53.50;19.80;;;;;;;9.19;90.82;100391.59;637363;1300;140127;-83
2022/11/03 19:58:55;;;;;;;62.60;32.30;;;;;;;9.18;90.11;100390.63;637632;1308;139528;-83
2022/11/03 20:14:00;;;;;;;49.40;19.40;;;;;;;9.10;90.46;100384.95;637065;1314;139705;-83
2022/11/03 20:29:11;;;;;;;38.30;15.10;;;;;;;8.95;90.63;100368.17;636616;1302;140405;-83
2022/11/03 20:44:14;;;;;;;19.40;9.80;;;;;;;8.80;91.86;100348.83;637117;1301;140026;-83
2022/11/03 20:59:21;;;;;;;20.60;9.40;;;;;;;8.82;92.45;100329.82;637546;1316;138591;-83
2022/11/03 21:14:29;;;;;;;20.90;10.80;;;;;;;8.73;93.60;100299.48;637628;1305;139208;-83
2022/11/03 21:29:33;;;;;;;20.30;10.60;;;;;;;8.73;95.22;100279.23;637972;1307;140122;-83
2022/11/03 21:44:57;;;;;;;18.10;9.00;;;;;;;8.80;95.51;100258.10;637929;1316;139368;-83
2022/11/03 22:00:01;;;;;;;17.30;9.00;;;;;;;8.87;96.20;100250.73;648919;1304;139024;-84
2022/11/03 22:45:53;;;;;;;25.40;9.50;;;;;;;8.83;96.97;100195.62;637531;1315;139138;-84
2022/11/03 23:01:02;;;;;;;22.40;9.50;;;;;;;8.85;97.59;100177.35;636960;1308;140129;-83
2022/11/03 23:16:18;;;;;;;20.00;8.10;;;;;;;8.95;98.07;100150.14;637788;1300;140653;-83
2022/11/03 23:31:21;;;;;;;19.00;7.40;;;;;;;9.14;98.52;100118.42;637069;1303;138469;-83
